createdAt,value
2023-01-09T00:00:54.435Z,2.10
2023-01-09T00:03:21.747Z,2.15
2023-01-09T00:05:49.001Z,2.55
2023-01-09T00:08:16.437Z,2.20
2023-01-09T00:10:43.615Z,2.00
2023-01-09T00:13:10.835Z,1.80
2023-01-09T00:15:37.982Z,3.95
2023-01-09T00:18:05.194Z,1.90
2023-01-09T00:20:32.439Z,1.90
2023-01-09T00:22:59.671Z,3.83
2023-01-09T00:25:26.848Z,1.45
2023-01-09T00:27:54.127Z,1.45
2023-01-09T00:30:21.332Z,1.23
2023-01-09T00:32:48.771Z,1.50
2023-01-09T00:35:15.960Z,1.33
2023-01-09T00:37:43.201Z,1.15
2023-01-09T00:40:10.400Z,1.08
2023-01-09T00:42:37.656Z,1.42
2023-01-09T00:45:04.928Z,1.17
2023-01-09T00:47:32.233Z,1.52
2023-01-09T00:50:00.696Z,1.20
2023-01-09T00:52:27.932Z,1.05
2023-01-09T00:54:55.249Z,2.38
2023-01-09T00:57:22.791Z,0.98
2023-01-09T00:59:49.995Z,1.60
2023-01-09T01:02:17.427Z,1.30
2023-01-09T01:05:03.667Z,1.55
2023-01-09T01:07:40.336Z,1.33
2023-01-09T01:10:07.617Z,1.23
2023-01-09T01:12:34.860Z,1.00
2023-01-09T01:15:02.126Z,1.20
2023-01-09T01:17:29.302Z,1.33
2023-01-09T01:19:56.598Z,1.92
2023-01-09T01:22:23.871Z,1.08
2023-01-09T01:24:51.135Z,1.30
2023-01-09T01:27:18.415Z,0.82
2023-01-09T01:29:45.718Z,1.10
2023-01-09T01:32:13.211Z,1.02
2023-01-09T01:34:40.489Z,1.67
2023-01-09T01:37:07.710Z,0.98
2023-01-09T01:39:34.987Z,1.02
2023-01-09T01:42:02.215Z,1.10
2023-01-09T01:44:29.391Z,0.93
2023-01-09T01:46:56.683Z,0.93
2023-01-09T01:49:23.857Z,1.00
2023-01-09T01:51:51.210Z,0.98
2023-01-09T01:54:18.435Z,1.20
2023-01-09T01:56:45.655Z,1.10
2023-01-09T01:59:12.874Z,0.90
2023-01-09T02:01:41.804Z,2.58
2023-01-09T02:04:09.148Z,1.10
2023-01-09T02:06:36.387Z,2.03
2023-01-09T02:09:03.665Z,1.60
2023-01-09T02:11:30.846Z,1.20
2023-01-09T02:13:58.100Z,1.48
2023-01-09T02:16:25.384Z,1.23
2023-01-09T02:18:54.099Z,0.98
2023-01-09T02:21:21.333Z,1.10
2023-01-09T02:23:48.599Z,1.00
2023-01-09T02:26:15.764Z,1.00
2023-01-09T02:28:43.005Z,1.00
2023-01-09T02:31:10.308Z,1.00
2023-01-09T02:33:37.553Z,0.82
2023-01-09T02:36:04.757Z,1.95
2023-01-09T02:38:32.030Z,1.05
2023-01-09T02:40:59.219Z,1.25
2023-01-09T02:43:26.501Z,2.08
2023-01-09T02:45:53.734Z,0.80
2023-01-09T02:48:21.026Z,2.00
2023-01-09T02:50:48.367Z,1.17
2023-01-09T02:53:15.659Z,1.20
2023-01-09T02:55:42.865Z,0.80
2023-01-09T02:58:10.131Z,1.05
2023-01-09T03:00:37.460Z,1.17
2023-01-09T03:03:04.754Z,0.85
2023-01-09T03:05:32.131Z,1.65
2023-01-09T03:07:59.449Z,2.10
2023-01-09T03:10:26.631Z,1.10
2023-01-09T03:12:54.377Z,1.38
2023-01-09T03:15:21.565Z,1.40
2023-01-09T03:17:48.863Z,1.17
2023-01-09T03:20:16.066Z,1.30
2023-01-09T03:22:43.374Z,1.17
2023-01-09T03:25:10.577Z,1.70
2023-01-09T03:27:37.795Z,1.30
2023-01-09T03:30:05.003Z,1.08
2023-01-09T03:32:32.202Z,1.40
2023-01-09T03:35:01.503Z,1.02
2023-01-09T03:37:28.746Z,1.38
2023-01-09T03:39:55.917Z,1.60
2023-01-09T03:42:23.358Z,1.33
2023-01-09T03:44:52.081Z,1.40
2023-01-09T03:47:19.297Z,1.55
2023-01-09T03:49:46.450Z,1.45
2023-01-09T03:52:14.125Z,1.48
2023-01-09T03:54:41.393Z,2.83
2023-01-09T03:57:08.640Z,1.48
2023-01-09T03:59:35.869Z,3.10
2023-01-09T04:02:04.179Z,1.90
2023-01-09T04:04:31.435Z,3.08
2023-01-09T04:06:58.702Z,1.52
2023-01-09T04:09:25.913Z,2.08
2023-01-09T04:11:53.178Z,1.85
2023-01-09T04:14:20.388Z,2.97
2023-01-09T04:16:47.676Z,2.08
2023-01-09T04:19:14.928Z,2.53
2023-01-09T04:21:42.136Z,1.92
2023-01-09T04:24:09.326Z,2.42
2023-01-09T04:26:36.636Z,2.55
2023-01-09T04:29:03.871Z,1.75
2023-01-09T04:31:31.094Z,2.35
2023-01-09T04:33:58.323Z,2.25
2023-01-09T04:36:25.843Z,2.40
2023-01-09T04:38:53.004Z,2.05
2023-01-09T04:41:46.743Z,2.25
2023-01-09T04:44:14.004Z,1.95
2023-01-09T04:46:41.235Z,2.08
2023-01-09T04:49:08.503Z,2.22
2023-01-09T04:51:35.700Z,2.30
2023-01-09T04:54:02.926Z,2.92
2023-01-09T04:56:30.133Z,2.40
2023-01-09T04:58:57.442Z,2.45
2023-01-09T05:01:24.758Z,1.77
2023-01-09T05:03:52.086Z,5.07
2023-01-09T05:06:19.377Z,2.10
2023-01-09T05:08:46.614Z,1.98
2023-01-09T05:11:13.833Z,2.15
2023-01-09T05:13:41.086Z,2.45
2023-01-09T05:16:08.280Z,1.95
2023-01-09T05:18:35.554Z,2.97
2023-01-09T05:21:02.778Z,2.28
2023-01-09T05:23:30.009Z,2.60
2023-01-09T05:25:57.185Z,2.58
2023-01-09T05:28:24.431Z,2.88
2023-01-09T05:30:51.673Z,2.25
2023-01-09T05:33:18.934Z,2.67
2023-01-09T05:35:46.096Z,2.40
2023-01-09T05:38:13.374Z,2.28
2023-01-09T05:40:40.792Z,2.35
2023-01-09T05:43:08.063Z,2.80
2023-01-09T05:45:35.323Z,3.00
2023-01-09T05:48:02.629Z,2.28
2023-01-09T05:50:29.826Z,2.10
2023-01-09T05:52:57.057Z,2.50
2023-01-09T05:55:24.282Z,3.83
2023-01-09T05:57:51.539Z,4.07
2023-01-09T06:00:18.740Z,1.77
2023-01-09T06:02:46.473Z,2.47
2023-01-09T06:05:13.880Z,2.97
2023-01-09T06:07:41.207Z,2.85
2023-01-09T06:10:08.437Z,5.70
2023-01-09T06:12:35.680Z,2.42
2023-01-09T06:15:02.945Z,2.17
2023-01-09T06:17:30.240Z,2.92
2023-01-09T06:19:57.681Z,2.97
2023-01-09T06:22:24.965Z,2.28
2023-01-09T06:24:52.211Z,3.10
2023-01-09T06:27:19.488Z,2.60
2023-01-09T06:29:46.824Z,1.88
2023-01-09T06:32:14.158Z,2.05
2023-01-09T06:34:41.458Z,1.83
2023-01-09T06:37:08.806Z,3.58
2023-01-09T06:39:36.023Z,2.65
2023-01-09T06:42:03.336Z,2.42
2023-01-09T06:44:30.539Z,2.75
2023-01-09T06:46:57.879Z,2.28
2023-01-09T06:49:25.124Z,2.70
2023-01-09T06:51:52.499Z,1.73
2023-01-09T06:54:19.764Z,2.00
2023-01-09T06:56:47.013Z,3.15
2023-01-09T06:59:14.294Z,1.77
2023-01-09T07:01:41.673Z,2.50
2023-01-09T07:04:10.784Z,1.92
2023-01-09T07:06:38.156Z,2.90
2023-01-09T07:09:08.396Z,2.38
2023-01-09T07:11:35.726Z,2.08
2023-01-09T07:14:02.997Z,2.35
2023-01-09T07:16:30.343Z,2.03
2023-01-09T07:18:57.563Z,3.03
2023-01-09T07:21:27.921Z,3.08
2023-01-09T07:23:55.142Z,2.47
2023-01-09T07:26:22.599Z,2.33
2023-01-09T07:28:49.879Z,2.42
2023-01-09T07:31:17.244Z,2.42
2023-01-09T07:33:44.473Z,3.55
2023-01-09T07:36:11.857Z,3.03
2023-01-09T07:38:39.815Z,2.10
2023-01-09T07:41:07.073Z,2.28
2023-01-09T07:43:34.308Z,1.88
2023-01-09T07:46:01.692Z,2.92
2023-01-09T07:48:29.111Z,2.80
2023-01-09T07:50:56.409Z,2.90
2023-01-09T07:53:23.702Z,5.32
2023-01-09T07:55:51.119Z,2.67
2023-01-09T07:58:18.395Z,3.42
2023-01-09T08:00:45.642Z,2.38
2023-01-09T08:03:13.048Z,2.47
2023-01-09T08:05:40.574Z,2.88
2023-01-09T08:08:08.127Z,3.50
2023-01-09T08:10:35.472Z,2.97
2023-01-09T08:13:02.747Z,5.38
2023-01-09T08:15:30.954Z,2.70
2023-01-09T08:17:58.307Z,2.40
2023-01-09T08:20:25.817Z,2.50
2023-01-09T08:22:54.358Z,5.55
2023-01-09T08:25:21.627Z,2.20
2023-01-09T08:27:48.880Z,3.00
2023-01-09T08:30:16.200Z,2.58
2023-01-09T08:32:43.433Z,3.65
2023-01-09T08:35:10.744Z,2.78
2023-01-09T08:37:37.953Z,2.58
2023-01-09T08:40:05.202Z,4.00
2023-01-09T08:42:51.294Z,1.90
2023-01-09T08:45:37.220Z,2.22
2023-01-09T08:48:04.500Z,3.22
2023-01-09T08:50:31.732Z,2.40
2023-01-09T08:52:58.947Z,2.83
2023-01-09T08:55:26.198Z,2.33
2023-01-09T08:57:53.446Z,1.67
2023-01-09T09:00:20.704Z,2.63
2023-01-09T09:02:48.078Z,1.85
2023-01-09T09:05:15.386Z,2.95
2023-01-09T09:07:42.947Z,2.80
2023-01-09T09:10:10.320Z,1.95
2023-01-09T09:12:37.567Z,2.25
2023-01-09T09:15:16.357Z,2.60
2023-01-09T09:17:44.524Z,2.35
2023-01-09T09:20:11.988Z,2.05
2023-01-09T09:22:39.311Z,2.40
2023-01-09T09:25:06.590Z,1.58
2023-01-09T09:27:36.215Z,2.10
2023-01-09T09:30:03.522Z,1.80
2023-01-09T09:32:30.710Z,3.20
2023-01-09T09:34:58.000Z,2.30
2023-01-09T09:37:25.387Z,2.42
2023-01-09T09:39:52.680Z,1.80
2023-01-09T09:42:38.907Z,2.30
2023-01-09T09:45:06.204Z,2.55
2023-01-09T09:47:33.499Z,1.65
2023-01-09T09:50:00.773Z,1.63
2023-01-09T09:52:27.949Z,2.00
2023-01-09T09:54:55.183Z,1.98
2023-01-09T09:57:22.415Z,1.60
2023-01-09T09:59:51.561Z,2.10
2023-01-09T10:02:18.944Z,3.10
2023-01-09T10:04:46.264Z,1.42
2023-01-09T10:07:13.600Z,2.05
2023-01-09T10:09:40.789Z,1.90
2023-01-09T10:12:08.263Z,3.65
2023-01-09T10:14:35.468Z,1.98
2023-01-09T10:17:03.475Z,1.63
2023-01-09T10:19:30.716Z,1.63
2023-01-09T10:21:58.003Z,1.33
2023-01-09T10:24:25.290Z,1.90
2023-01-09T10:26:52.812Z,2.30
2023-01-09T10:29:20.115Z,2.00
2023-01-09T10:31:47.383Z,1.60
2023-01-09T10:34:14.793Z,1.20
2023-01-09T10:36:42.059Z,1.77
2023-01-09T10:39:09.333Z,1.77
2023-01-09T10:41:36.700Z,1.75
2023-01-09T10:44:04.292Z,4.43
2023-01-09T10:46:31.563Z,1.27
2023-01-09T10:48:59.134Z,1.33
2023-01-09T10:51:26.305Z,1.50
2023-01-09T10:53:53.702Z,1.40
2023-01-09T10:56:20.991Z,1.40
2023-01-09T10:58:49.386Z,0.93
2023-01-09T11:01:16.704Z,1.48
2023-01-09T11:03:44.039Z,1.70
2023-01-09T11:06:11.351Z,1.27
2023-01-09T11:08:40.267Z,1.35
2023-01-09T11:11:07.633Z,1.50
2023-01-09T11:13:34.851Z,1.23
2023-01-09T11:16:02.194Z,1.38
2023-01-09T11:18:29.460Z,0.90
2023-01-09T11:20:57.090Z,1.25
2023-01-09T11:23:24.286Z,1.60
2023-01-09T11:25:51.523Z,1.10
2023-01-09T11:28:18.769Z,1.10
2023-01-09T11:30:45.975Z,1.02
2023-01-09T11:33:13.220Z,1.02
2023-01-09T11:35:40.451Z,2.08
2023-01-09T11:38:08.101Z,1.20
2023-01-09T11:40:35.584Z,1.13
2023-01-09T11:43:02.854Z,1.05
2023-01-09T11:45:30.072Z,1.00
2023-01-09T11:47:57.443Z,1.30
2023-01-09T11:50:25.040Z,1.55
2023-01-09T11:52:52.432Z,0.80
2023-01-09T11:55:19.667Z,1.75
2023-01-09T11:57:46.972Z,1.13
2023-01-09T12:00:14.245Z,1.20
2023-01-09T12:02:41.716Z,1.48
2023-01-09T12:05:09.016Z,1.17
2023-01-09T12:07:37.066Z,1.33
2023-01-09T12:10:04.314Z,0.93
2023-01-09T12:12:32.036Z,1.10
2023-01-09T12:14:59.259Z,0.82
2023-01-09T12:17:26.499Z,1.30
2023-01-09T12:19:53.726Z,1.60
2023-01-09T12:22:21.131Z,1.17
2023-01-09T12:24:48.448Z,0.98
2023-01-09T12:27:17.343Z,0.98
2023-01-09T12:29:44.727Z,0.90
2023-01-09T12:32:11.979Z,1.30
2023-01-09T12:34:39.196Z,0.85
2023-01-09T12:37:06.460Z,1.23
2023-01-09T12:39:33.669Z,1.13
2023-01-09T12:42:00.961Z,1.10
2023-01-09T12:44:35.583Z,1.42
2023-01-09T12:47:03.609Z,0.98
2023-01-09T12:49:30.831Z,1.55
2023-01-09T12:52:01.193Z,1.00
2023-01-09T12:54:28.643Z,1.02
2023-01-09T12:56:56.141Z,1.05
2023-01-09T12:59:30.073Z,0.70
2023-01-09T13:01:57.505Z,1.10
2023-01-09T13:04:24.687Z,1.77
2023-01-09T13:06:51.974Z,1.30
2023-01-09T13:09:19.295Z,1.38
2023-01-09T13:11:46.960Z,2.28
2023-01-09T13:14:14.311Z,1.40
2023-01-09T13:16:41.970Z,0.93
2023-01-09T13:19:09.347Z,1.45
2023-01-09T13:21:36.856Z,1.90
2023-01-09T13:24:04.149Z,1.50
2023-01-09T13:26:31.446Z,1.40
2023-01-09T13:29:00.781Z,1.20
2023-01-09T13:31:28.389Z,2.60
2023-01-09T13:33:55.625Z,1.33
2023-01-09T13:36:22.961Z,1.55
2023-01-09T13:38:50.135Z,1.55
2023-01-09T13:41:36.139Z,1.20
2023-01-09T13:44:03.414Z,1.50
2023-01-09T13:46:30.664Z,1.33
2023-01-09T13:48:58.042Z,1.55
2023-01-09T13:51:25.365Z,1.55
2023-01-09T13:53:53.034Z,2.90
2023-01-09T13:56:23.703Z,2.00
2023-01-09T13:58:51.570Z,1.98
2023-01-09T14:01:18.824Z,1.30
2023-01-09T14:03:46.130Z,2.05
2023-01-09T14:06:13.467Z,1.73
2023-01-09T14:08:42.004Z,2.03
2023-01-09T14:11:09.367Z,1.45
2023-01-09T14:13:36.838Z,1.27
2023-01-09T14:16:04.111Z,1.63
2023-01-09T14:18:31.425Z,1.40
2023-01-09T14:20:58.929Z,2.58
2023-01-09T14:26:13.477Z,1.70
2023-01-09T14:28:40.669Z,3.05
2023-01-09T14:31:08.134Z,1.88
2023-01-09T14:33:36.008Z,2.85
2023-01-09T14:36:03.260Z,2.78
2023-01-09T14:38:30.458Z,3.13
2023-01-09T14:40:57.730Z,2.08
2023-01-09T14:43:25.210Z,2.25
2023-01-09T14:45:52.514Z,2.15
2023-01-09T14:48:21.909Z,1.25
2023-01-09T14:50:51.123Z,2.45
2023-01-09T14:53:18.736Z,1.58
2023-01-09T14:55:45.982Z,2.03
2023-01-09T14:58:13.611Z,1.77
2023-01-09T15:00:41.184Z,2.10
2023-01-09T15:03:08.633Z,2.10
2023-01-09T15:05:35.911Z,2.45
2023-01-09T15:08:03.216Z,1.92
2023-01-09T15:10:30.508Z,1.73
2023-01-09T15:12:57.741Z,3.00
2023-01-09T15:15:25.016Z,2.00
2023-01-09T15:17:52.279Z,1.40
2023-01-09T15:20:19.588Z,2.25
2023-01-09T15:22:46.893Z,2.03
2023-01-09T15:25:14.091Z,1.55
2023-01-09T15:27:41.353Z,1.38
2023-01-09T15:30:08.630Z,1.90
2023-01-09T15:32:35.943Z,1.27
2023-01-09T15:35:03.199Z,1.27
2023-01-09T15:37:30.501Z,2.35
2023-01-09T15:39:57.701Z,2.38
2023-01-09T15:42:43.696Z,2.00
2023-01-09T15:45:10.966Z,1.58
2023-01-09T15:47:38.194Z,2.22
2023-01-09T15:50:05.747Z,1.45
2023-01-09T15:52:33.003Z,2.95
2023-01-09T15:55:00.334Z,1.73
2023-01-09T15:57:27.821Z,1.58
2023-01-09T15:59:55.152Z,3.08
2023-01-09T16:02:41.221Z,2.33
2023-01-09T16:05:08.669Z,1.70
2023-01-09T16:07:35.930Z,1.83
2023-01-09T16:10:03.282Z,2.17
2023-01-09T16:12:30.550Z,1.92
2023-01-09T16:14:57.773Z,2.33
2023-01-09T16:17:26.589Z,2.40
2023-01-09T16:19:54.004Z,3.05
2023-01-09T16:22:21.242Z,2.25
2023-01-09T16:24:48.668Z,2.28
2023-01-09T16:27:15.943Z,2.05
2023-01-09T16:29:43.310Z,2.45
2023-01-09T16:32:10.573Z,2.40
2023-01-09T16:34:37.943Z,2.90
2023-01-09T16:37:05.317Z,2.45
2023-01-09T16:39:32.606Z,2.45
2023-01-09T16:42:18.766Z,2.67
2023-01-09T16:44:46.011Z,2.60
2023-01-09T16:47:13.264Z,2.25
2023-01-09T16:49:40.613Z,1.95
2023-01-09T16:52:08.133Z,2.67
2023-01-09T16:54:35.542Z,2.88
2023-01-09T16:57:02.906Z,2.15
2023-01-09T16:59:30.241Z,2.25
2023-01-09T17:01:57.565Z,2.10
2023-01-09T17:04:25.184Z,3.25
2023-01-09T17:06:52.369Z,2.45
2023-01-09T17:09:19.777Z,2.17
2023-01-09T17:11:47.108Z,2.30
2023-01-09T17:14:14.377Z,3.75
2023-01-09T17:16:45.710Z,2.17
2023-01-09T17:19:13.146Z,3.58
2023-01-09T17:21:40.391Z,2.33
2023-01-09T17:24:26.484Z,3.95
2023-01-09T17:27:12.607Z,2.13
2023-01-09T17:29:39.974Z,2.50
2023-01-09T17:32:07.309Z,2.40
2023-01-09T17:34:34.853Z,3.35
2023-01-09T17:37:04.291Z,2.75
2023-01-09T17:39:31.774Z,2.33
2023-01-09T17:42:01.991Z,2.58
2023-01-09T17:44:29.668Z,2.15
2023-01-09T17:46:56.840Z,3.20
2023-01-09T17:49:24.165Z,2.25
2023-01-09T17:51:51.396Z,2.42
2023-01-09T17:54:21.059Z,2.53
2023-01-09T17:56:49.208Z,2.42
2023-01-09T17:59:16.392Z,2.42
2023-01-09T18:01:43.776Z,3.20
2023-01-09T18:04:11.023Z,2.42
2023-01-09T18:06:38.327Z,2.42
2023-01-09T18:09:05.531Z,2.13
2023-01-09T18:11:32.785Z,1.80
2023-01-09T18:14:00.031Z,2.65
2023-01-09T18:16:27.421Z,2.20
2023-01-09T18:18:54.711Z,2.72
2023-01-09T18:21:22.352Z,3.08
2023-01-09T18:23:50.202Z,2.85
2023-01-09T18:26:21.152Z,3.70
2023-01-09T18:28:48.731Z,2.90
2023-01-09T18:31:17.414Z,3.05
2023-01-09T18:33:44.724Z,2.15
2023-01-09T18:36:12.025Z,4.40
2023-01-09T18:38:39.281Z,3.58
2023-01-09T18:41:06.523Z,2.50
2023-01-09T18:43:33.866Z,2.78
2023-01-09T18:46:01.058Z,2.55
2023-01-09T18:48:28.369Z,3.65
2023-01-09T18:50:55.647Z,3.50
2023-01-09T18:53:22.882Z,1.95
2023-01-09T18:55:50.111Z,2.40
2023-01-09T18:58:17.446Z,2.85
2023-01-09T19:00:46.201Z,2.67
2023-01-09T19:03:13.591Z,2.30
2023-01-09T19:05:43.154Z,2.40
2023-01-09T19:08:10.435Z,2.45
2023-01-09T19:10:40.652Z,3.58
2023-01-09T19:13:07.931Z,3.42
2023-01-09T19:15:35.207Z,3.53
2023-01-09T19:18:02.505Z,2.25
2023-01-09T19:20:29.879Z,2.75
2023-01-09T19:22:57.241Z,2.53
2023-01-09T19:25:24.555Z,2.58
2023-01-09T19:27:55.137Z,3.88
2023-01-09T19:30:22.499Z,4.50
2023-01-09T19:32:49.958Z,5.00
2023-01-09T19:35:17.668Z,2.97
2023-01-09T19:37:44.864Z,2.75
2023-01-09T19:40:12.256Z,2.90
2023-01-09T19:42:39.462Z,2.63
2023-01-09T19:45:06.748Z,3.70
2023-01-09T19:47:37.023Z,2.97
2023-01-09T19:50:05.260Z,3.55
2023-01-09T19:52:32.580Z,2.85
2023-01-09T19:55:00.359Z,2.65
2023-01-09T19:57:27.692Z,3.28
2023-01-09T19:59:54.927Z,3.20
2023-01-09T20:04:49.445Z,2.67
2023-01-09T20:07:17.230Z,2.60
2023-01-09T20:09:44.485Z,4.00
2023-01-09T20:12:11.676Z,4.90
2023-01-09T20:14:38.973Z,4.45
2023-01-09T20:17:06.223Z,3.33
2023-01-09T20:19:33.819Z,3.42
2023-01-09T20:22:01.228Z,3.05
2023-01-09T20:24:28.493Z,3.95
2023-01-09T20:26:55.732Z,3.72
2023-01-09T20:29:23.671Z,3.75
2023-01-09T20:31:52.305Z,3.67
2023-01-09T20:34:19.601Z,4.45
2023-01-09T20:36:47.406Z,3.40
2023-01-09T20:39:14.724Z,3.58
2023-01-09T20:41:42.108Z,4.15
2023-01-09T20:44:09.362Z,4.43
2023-01-09T20:46:37.077Z,2.92
2023-01-09T20:49:06.476Z,5.88
2023-01-09T20:51:33.719Z,5.50
2023-01-09T20:54:01.055Z,5.03
2023-01-09T20:56:28.464Z,4.15
2023-01-09T20:58:55.779Z,5.57
2023-01-09T21:01:23.096Z,4.32
2023-01-09T21:03:50.371Z,5.47
2023-01-09T21:06:17.743Z,4.63
2023-01-09T21:08:45.217Z,6.03
2023-01-09T21:11:12.414Z,5.38
2023-01-09T21:13:39.748Z,4.32
2023-01-09T21:16:09.633Z,3.90
2023-01-09T21:18:37.184Z,4.03
2023-01-09T21:21:04.465Z,5.43
2023-01-09T21:23:31.781Z,4.13
2023-01-09T21:25:59.703Z,3.95
2023-01-09T21:28:27.307Z,5.05
2023-01-09T21:30:54.585Z,4.30
2023-01-09T21:33:22.066Z,5.40
2023-01-09T21:35:49.358Z,3.83
2023-01-09T21:38:16.869Z,4.55
2023-01-09T21:40:44.097Z,3.90
2023-01-09T21:43:30.138Z,6.43
2023-01-09T21:46:20.347Z,4.50
2023-01-09T21:48:47.672Z,3.30
2023-01-09T21:51:14.935Z,4.15
2023-01-09T21:53:42.194Z,4.68
2023-01-09T21:56:09.386Z,4.15
2023-01-09T21:58:36.643Z,4.95
2023-01-09T22:01:03.939Z,5.13
2023-01-09T22:03:31.272Z,3.65
2023-01-09T22:05:58.534Z,5.45
2023-01-09T22:08:25.759Z,5.10
2023-01-09T22:10:52.978Z,5.13
2023-01-09T22:13:20.756Z,4.03
2023-01-09T22:15:48.769Z,4.88
2023-01-09T22:18:16.059Z,5.63
2023-01-09T22:20:43.252Z,5.55
2023-01-09T22:23:10.449Z,3.45
2023-01-09T22:25:38.072Z,5.65
2023-01-09T22:28:05.295Z,4.15
2023-01-09T22:30:32.590Z,4.53
2023-01-09T22:33:00.719Z,5.18
2023-01-09T22:35:27.948Z,4.28
2023-01-09T22:37:55.140Z,5.28
2023-01-09T22:40:22.407Z,4.53
2023-01-09T22:42:49.562Z,4.25
2023-01-09T22:45:16.901Z,4.47
2023-01-09T22:47:44.246Z,4.47
2023-01-09T22:50:11.631Z,6.43
2023-01-09T22:52:38.879Z,4.05
2023-01-09T22:55:06.216Z,3.85
2023-01-09T22:57:33.513Z,4.75
2023-01-09T23:00:00.730Z,5.10
2023-01-09T23:02:28.050Z,5.05
2023-01-09T23:04:58.278Z,4.25
2023-01-09T23:07:25.723Z,4.78
2023-01-09T23:09:56.296Z,4.63
2023-01-09T23:12:23.612Z,4.68
2023-01-09T23:14:50.913Z,4.57
2023-01-09T23:17:18.260Z,3.25
2023-01-09T23:19:45.420Z,4.40
2023-01-09T23:22:12.746Z,6.10
2023-01-09T23:24:39.973Z,4.00
2023-01-09T23:27:07.738Z,3.83
2023-01-09T23:29:38.508Z,4.00
2023-01-09T23:32:06.968Z,4.28
2023-01-09T23:34:34.275Z,4.97
2023-01-09T23:37:01.628Z,4.78
2023-01-09T23:39:29.098Z,3.90
2023-01-09T23:42:15.064Z,3.67
2023-01-09T23:44:42.342Z,2.95
2023-01-09T23:47:09.500Z,3.63
2023-01-09T23:49:36.935Z,4.00
2023-01-09T23:52:06.118Z,4.95
2023-01-09T23:54:33.528Z,4.60
2023-01-09T23:57:00.752Z,4.05
2023-01-09T23:59:28.066Z,4.10
